Time;durP1;ratioP1;P1;durP2;ratioP2;P2;SDS_P1;SDS_P2;PMS_P1;PMS_P2;Temp;Humidity;BMP_temperature;BMP_pressure;BME280_temperature;BME280_humidity;BME280_pressure;Samples;Min_cycle;Max_cycle;Signal;HPM_P1;HPM_P2
2022/02/11 00:05:37;;;;;;;11.80;6.65;;;9.80;57.00;;;;;;5093275;28;20499;-70
2022/02/11 00:07:25;;;;;;;9.80;6.70;;;9.80;57.00;;;;;;5087223;28;20111;-69
2022/02/11 00:09:52;;;;;;;12.23;5.97;;;9.90;57.20;;;;;;5078876;28;20054;-69
2022/02/11 00:12:18;;;;;;;12.13;6.20;;;9.90;57.30;;;;;;5078475;28;20035;-69
2022/02/11 00:17:18;;;;;;;9.98;6.03;;;9.80;57.30;;;;;;5097106;28;20020;-69
2022/02/11 00:19:45;;;;;;;10.02;5.40;;;9.90;57.40;;;;;;5078652;28;20084;-69
2022/02/11 00:22:11;;;;;;;10.13;6.63;;;9.90;58.10;;;;;;5078412;28;20024;-70
2022/02/11 00:24:37;;;;;;;12.75;7.60;;;9.80;57.40;;;;;;5078623;28;20367;-69
2022/02/11 00:27:39;;;;;;;14.25;7.50;;;9.90;57.30;;;;;;5078584;28;20024;-69
2022/02/11 00:32:49;;;;;;;10.07;6.10;;;9.90;57.30;;;;;;5096964;28;20047;-70
2022/02/11 00:37:47;;;;;;;9.60;5.82;;;9.90;57.40;;;;;;5076223;28;20025;-69
2022/02/11 00:41:08;;;;;;;10.27;6.57;;;10.00;57.50;;;;;;5075688;28;20462;-69
2022/02/11 01:04:16;;;;;;;10.43;6.40;;;10.10;57.10;;;;;;5075585;28;20040;-70
2022/02/11 01:06:43;;;;;;;13.80;6.95;;;10.10;57.10;;;;;;5075799;28;20028;-69
2022/02/11 01:09:13;;;;;;;11.05;6.35;;;10.10;57.20;;;;;;5075645;28;20502;-69
2022/02/11 01:11:49;;;;;;;11.98;6.75;;;10.10;57.20;;;;;;5074376;28;20033;-69
2022/02/11 01:14:16;;;;;;;11.25;6.85;;;10.10;57.10;;;;;;5075742;28;20039;-69
2022/02/11 01:16:50;;;;;;;13.52;6.72;;;10.10;57.10;;;;;;5075484;28;20025;-69
2022/02/11 01:19:28;;;;;;;13.02;7.43;;;10.10;57.10;;;;;;5073235;28;20119;-70
2022/02/11 01:22:12;;;;;;;15.50;7.03;;;10.10;57.10;;;;;;5075545;28;20032;-69
2022/02/11 01:24:58;;;;;;;12.82;7.35;;;10.00;57.10;;;;;;5075263;28;20081;-69
2022/02/11 01:30:23;;;;;;;13.45;7.78;;;10.00;57.10;;;;;;5075285;28;20035;-69
2022/02/11 01:32:55;;;;;;;10.20;6.47;;;10.00;57.10;;;;;;5074860;28;20116;-69
2022/02/11 01:35:32;;;;;;;13.32;6.85;;;9.90;57.00;;;;;;5075042;28;20484;-69
2022/02/11 01:38:15;;;;;;;11.00;6.85;;;9.90;57.20;;;;;;5073866;28;20028;-69
2022/02/11 01:55:31;;;;;;;14.55;7.60;;;9.90;57.50;;;;;;5074562;28;20092;-69
2022/02/11 01:58:37;;;;;;;13.82;7.45;;;9.90;57.50;;;;;;5074590;28;20031;-69
2022/02/11 02:03:49;;;;;;;13.23;7.13;;;10.00;57.60;;;;;;5074411;28;20032;-70
2022/02/11 02:11:59;;;;;;;12.23;8.18;;;10.00;57.70;;;;;;5074148;28;20048;-69
2022/02/11 02:14:57;;;;;;;16.63;9.27;;;10.00;57.70;;;;;;5073931;28;20025;-69
2022/02/11 02:28:01;;;;;;;11.32;7.78;;;10.10;57.80;;;;;;5074207;28;20531;-69
2022/02/11 02:57:50;;;;;;;11.40;6.85;;;10.20;57.80;;;;;;5093989;28;20502;-69
2022/02/11 03:01:17;;;;;;;21.80;11.07;;;10.20;57.90;;;;;;5093875;28;20024;-69
2022/02/11 03:49:57;;;;;;;14.25;8.25;;;10.10;58.10;;;;;;5097176;28;20530;-69
2022/02/11 04:56:40;;;;;;;24.30;13.85;;;10.20;58.90;;;;;;5075865;28;20056;-70
2022/02/11 05:01:50;;;;;;;20.48;11.50;;;10.20;58.80;;;;;;5075599;28;20392;-69
2022/02/11 05:04:17;;;;;;;15.77;9.95;;;10.20;58.90;;;;;;5075441;28;20037;-69
2022/02/11 05:06:42;;;;;;;15.45;9.23;;;10.20;58.90;;;;;;5054438;28;20495;-71
2022/02/11 05:09:08;;;;;;;15.32;9.45;;;10.30;59.00;;;;;;5057527;28;20056;-69
2022/02/11 05:11:34;;;;;;;16.42;9.93;;;10.30;59.10;;;;;;5075581;28;20380;-69
2022/02/11 05:14:00;;;;;;;14.20;9.00;;;10.30;59.10;;;;;;5075417;28;20035;-70
2022/02/11 05:16:26;;;;;;;14.63;9.18;;;10.30;59.20;;;;;;5075215;28;20090;-69
2022/02/11 05:18:52;;;;;;;16.83;9.68;;;10.30;59.30;;;;;;5075121;28;20085;-70
2022/02/11 05:21:17;;;;;;;16.52;9.35;;;10.30;59.40;;;;;;5057482;28;20031;-69
2022/02/11 05:23:43;;;;;;;19.42;10.75;;;10.30;59.40;;;;;;5075030;28;20031;-69
2022/02/11 05:26:09;;;;;;;15.93;9.40;;;10.30;59.50;;;;;;5054036;28;20044;-70
2022/02/11 05:28:35;;;;;;;15.02;8.82;;;10.30;59.60;;;;;;5074731;28;20463;-69
2022/02/11 05:31:01;;;;;;;14.48;9.18;;;10.30;59.70;;;;;;5075491;28;20052;-70
2022/02/11 05:33:28;;;;;;;17.42;9.48;;;10.30;59.70;;;;;;5076928;28;20075;-69
2022/02/11 05:35:54;;;;;;;17.67;11.40;;;10.30;59.80;;;;;;5077049;28;20055;-69
2022/02/11 05:38:19;;;;;;;25.38;16.00;;;10.30;59.90;;;;;;5077090;28;20477;-69
2022/02/11 05:40:45;;;;;;;22.48;14.35;;;10.30;60.10;;;;;;5076994;28;20525;-69
2022/02/11 05:43:12;;;;;;;25.98;13.25;;;10.30;60.30;;;;;;5076715;28;20048;-70
2022/02/11 05:45:38;;;;;;;21.55;12.40;;;10.40;60.50;;;;;;5076969;28;20034;-70
2022/02/11 05:48:05;;;;;;;22.20;13.23;;;10.30;60.50;;;;;;5094758;28;20032;-69
2022/02/11 05:50:31;;;;;;;25.83;12.88;;;10.30;60.70;;;;;;5076808;28;20044;-70
2022/02/11 05:52:58;;;;;;;37.90;20.70;;;10.40;60.90;;;;;;5094761;28;20020;-69
2022/02/11 05:55:24;;;;;;;35.13;18.33;;;10.40;61.00;;;;;;5076791;28;20495;-70
2022/02/11 05:57:50;;;;;;;25.75;13.90;;;10.40;61.00;;;;;;5076740;28;20028;-70
2022/02/11 06:00:16;;;;;;;22.95;12.85;;;10.30;61.00;;;;;;5094878;28;20103;-69
2022/02/11 06:02:42;;;;;;;22.70;11.52;;;10.40;61.20;;;;;;5076758;28;20043;-71
2022/02/11 06:05:09;;;;;;;17.60;10.80;;;10.30;61.10;;;;;;5076011;28;20423;-69
2022/02/11 06:07:34;;;;;;;20.38;11.02;;;10.30;61.20;;;;;;5094770;28;20082;-69
2022/02/11 06:10:00;;;;;;;22.05;10.73;;;10.30;61.30;;;;;;5076538;28;20028;-70
2022/02/11 06:12:26;;;;;;;15.75;10.85;;;10.30;61.30;;;;;;5094979;28;20103;-69
2022/02/11 06:14:53;;;;;;;16.70;9.93;;;10.30;61.30;;;;;;5076381;28;20047;-70
2022/02/11 06:17:20;;;;;;;17.30;10.10;;;10.30;61.30;;;;;;5094319;28;20038;-69
2022/02/11 06:19:48;;;;;;;20.40;10.82;;;10.30;61.40;;;;;;5076213;28;20066;-69
2022/02/11 06:22:15;;;;;;;19.38;10.05;;;10.30;62.30;;;;;;5076199;28;20031;-70
2022/02/11 06:24:41;;;;;;;23.13;10.70;;;10.30;61.60;;;;;;5076177;28;20106;-69
2022/02/11 06:27:07;;;;;;;16.38;10.10;;;10.30;61.70;;;;;;5094425;28;20154;-70
2022/02/11 06:29:35;;;;;;;22.17;11.48;;;10.20;61.80;;;;;;5094335;28;20527;-70
2022/02/11 06:32:02;;;;;;;18.35;10.10;;;10.20;61.90;;;;;;5074192;28;20060;-69
2022/02/11 06:34:28;;;;;;;16.27;9.35;;;10.20;62.00;;;;;;5073550;28;20138;-69
2022/02/11 06:36:54;;;;;;;24.48;13.02;;;10.10;62.00;;;;;;5072615;28;20033;-70
2022/02/11 06:39:24;;;;;;;16.42;10.07;;;10.10;62.70;;;;;;5073585;28;20032;-69
2022/02/11 06:41:53;;;;;;;16.38;9.60;;;10.10;62.10;;;;;;5052714;28;20419;-70
2022/02/11 06:44:20;;;;;;;22.55;9.80;;;10.00;62.00;;;;;;5070225;28;20020;-69
2022/02/11 06:46:46;;;;;;;16.45;8.82;;;10.00;62.90;;;;;;5073439;28;20052;-69
2022/02/11 06:49:12;;;;;;;18.25;9.77;;;10.00;62.10;;;;;;5073692;28;20025;-69
2022/02/11 06:51:38;;;;;;;15.65;9.48;;;9.90;62.20;;;;;;5073719;28;20154;-69
2022/02/11 06:54:03;;;;;;;12.30;7.75;;;10.00;62.30;;;;;;5073693;28;20470;-69
2022/02/11 06:56:29;;;;;;;11.35;7.40;;;10.00;62.40;;;;;;5073301;28;20058;-69
2022/02/11 06:58:55;;;;;;;15.68;8.32;;;10.00;62.60;;;;;;5055576;28;20020;-69
2022/02/11 07:01:22;;;;;;;19.10;8.98;;;10.00;62.70;;;;;;5073526;28;20380;-69
2022/02/11 07:03:49;;;;;;;20.55;9.48;;;10.00;62.70;;;;;;5055458;28;20024;-69
2022/02/11 07:06:14;;;;;;;17.33;10.07;;;10.10;62.80;;;;;;5073551;28;20028;-70
2022/02/11 07:08:40;;;;;;;12.18;7.25;;;10.10;62.80;;;;;;5073184;28;20410;-69
2022/02/11 07:11:06;;;;;;;19.17;9.13;;;10.10;62.80;;;;;;5055475;28;20530;-70
2022/02/11 07:13:32;;;;;;;16.38;9.27;;;10.10;63.70;;;;;;5073487;28;20036;-69
2022/02/11 07:15:58;;;;;;;20.05;9.82;;;10.20;63.00;;;;;;5072738;28;20025;-69
2022/02/11 07:18:24;;;;;;;16.80;9.27;;;10.20;63.00;;;;;;5070210;28;20500;-69
2022/02/11 07:20:50;;;;;;;16.35;8.55;;;10.20;63.00;;;;;;5073322;28;20039;-70
2022/02/11 07:23:16;;;;;;;15.25;9.00;;;10.30;63.10;;;;;;5055370;28;20028;-69
2022/02/11 07:25:43;;;;;;;15.43;8.77;;;10.30;63.10;;;;;;5073339;28;20025;-69
2022/02/11 07:28:09;;;;;;;12.95;8.20;;;10.30;63.00;;;;;;5055126;28;20313;-71
2022/02/11 07:30:35;;;;;;;18.02;9.25;;;10.30;62.90;;;;;;5069804;28;20095;-70
2022/02/11 07:33:01;;;;;;;14.05;8.73;;;10.30;62.90;;;;;;5050114;28;20098;-70
2022/02/11 07:35:27;;;;;;;15.07;8.27;;;10.30;62.80;;;;;;5073178;28;20480;-69
2022/02/11 07:37:54;;;;;;;16.27;8.90;;;10.40;62.80;;;;;;5072901;28;20031;-69
2022/02/11 07:40:20;;;;;;;20.73;9.10;;;10.40;62.80;;;;;;5072925;28;20111;-69
2022/02/11 07:42:47;;;;;;;18.17;9.38;;;10.40;62.90;;;;;;5055123;28;20047;-69
2022/02/11 07:45:14;;;;;;;15.63;8.00;;;10.40;63.00;;;;;;5055060;28;20024;-70
2022/02/11 07:47:40;;;;;;;19.75;9.85;;;10.40;63.10;;;;;;5055101;28;20073;-69
2022/02/11 07:50:07;;;;;;;22.77;13.98;;;10.50;63.20;;;;;;5055031;28;20452;-69
2022/02/11 07:52:33;;;;;;;29.23;17.05;;;10.50;63.30;;;;;;5055001;28;20028;-69
2022/02/11 07:54:59;;;;;;;36.17;18.73;;;10.50;63.30;;;;;;5072785;28;20025;-69
2022/02/11 07:57:25;;;;;;;42.10;24.95;;;10.50;63.30;;;;;;5054966;28;20530;-69
2022/02/11 07:59:51;;;;;;;34.25;18.70;;;10.60;63.30;;;;;;5055086;28;20112;-69
2022/02/11 08:02:17;;;;;;;29.40;16.80;;;10.60;63.40;;;;;;5072788;28;20376;-69
2022/02/11 08:04:43;;;;;;;32.45;18.40;;;10.60;63.50;;;;;;5072426;28;20031;-69
2022/02/11 08:07:09;;;;;;;23.58;13.38;;;10.60;63.50;;;;;;5072919;28;20025;-70
2022/02/11 08:09:35;;;;;;;26.58;12.88;;;10.70;63.60;;;;;;5072821;28;20076;-69
2022/02/11 08:12:02;;;;;;;24.27;12.15;;;10.70;63.50;;;;;;5054865;28;20365;-69
2022/02/11 08:14:30;;;;;;;23.55;12.77;;;10.70;63.50;;;;;;5072648;28;20425;-70
2022/02/11 08:16:56;;;;;;;17.38;11.45;;;10.70;63.50;;;;;;5070196;28;20020;-73
2022/02/11 08:19:22;;;;;;;13.90;8.65;;;10.70;63.60;;;;;;5072969;28;20063;-70
2022/02/11 08:21:50;;;;;;;13.20;7.85;;;10.80;63.90;;;;;;5081585;28;20036;-71
2022/02/11 08:24:16;;;;;;;14.55;8.90;;;10.80;64.10;;;;;;5054629;28;20024;-70
2022/02/11 08:26:43;;;;;;;21.90;9.90;;;10.80;64.20;;;;;;5072398;28;20037;-70
2022/02/11 08:29:09;;;;;;;16.98;8.15;;;10.80;64.20;;;;;;5073959;28;20024;-70
2022/02/11 08:31:39;;;;;;;12.88;7.57;;;10.90;64.20;;;;;;5051261;28;20525;-70
2022/02/11 08:34:05;;;;;;;12.50;6.72;;;10.90;64.30;;;;;;5058331;28;20053;-70
2022/02/11 08:36:31;;;;;;;12.25;7.57;;;10.90;64.30;;;;;;5092504;28;20028;-73
2022/02/11 08:38:57;;;;;;;11.90;6.90;;;10.90;64.30;;;;;;5095338;28;20024;-70
2022/02/11 08:41:23;;;;;;;8.75;5.55;;;10.90;64.40;;;;;;5071378;28;20039;-70
2022/02/11 08:43:49;;;;;;;9.00;4.97;;;10.90;64.60;;;;;;5055299;28;20025;-70
2022/02/11 08:46:15;;;;;;;12.18;6.55;;;10.90;64.70;;;;;;5069972;28;20093;-70
2022/02/11 08:48:41;;;;;;;9.02;5.53;;;11.00;64.50;;;;;;5094113;28;20055;-70
2022/02/11 08:51:07;;;;;;;8.63;4.88;;;11.00;64.10;;;;;;5096133;28;20032;-70
2022/02/11 08:53:35;;;;;;;6.70;4.60;;;11.00;64.30;;;;;;5095569;28;20479;-70
2022/02/11 08:56:03;;;;;;;7.57;4.05;;;11.00;64.60;;;;;;5095898;28;20115;-70
2022/02/11 08:58:29;;;;;;;7.60;4.05;;;11.10;64.40;;;;;;5094898;28;20028;-70
2022/02/11 09:00:55;;;;;;;7.22;4.00;;;11.10;63.80;;;;;;5074571;28;20457;-70
2022/02/11 09:03:20;;;;;;;7.53;3.45;;;11.20;64.00;;;;;;5093905;28;20455;-70
2022/02/11 09:05:46;;;;;;;6.38;3.78;;;11.20;63.90;;;;;;5096051;28;20024;-70
2022/02/11 09:08:12;;;;;;;5.47;3.30;;;11.20;64.20;;;;;;5096327;28;20024;-70
2022/02/11 09:10:39;;;;;;;6.20;3.35;;;11.20;64.50;;;;;;5095834;28;20035;-71
2022/02/11 09:13:05;;;;;;;7.63;2.90;;;11.10;64.40;;;;;;5095897;28;20048;-70
2022/02/11 09:15:32;;;;;;;6.00;3.50;;;11.10;64.10;;;;;;5077267;28;20119;-70
2022/02/11 09:17:58;;;;;;;7.00;3.78;;;11.10;63.70;;;;;;5077721;28;20028;-70
2022/02/11 09:20:25;;;;;;;3.58;2.90;;;11.20;63.80;;;;;;5094513;28;20239;-70
2022/02/11 09:22:51;;;;;;;5.18;3.40;;;11.10;63.30;;;;;;5072368;28;20033;-71
2022/02/11 09:25:18;;;;;;;7.10;3.30;;;11.10;63.40;;;;;;5077048;28;20492;-70
2022/02/11 09:27:44;;;;;;;4.78;3.47;;;11.10;63.30;;;;;;5053861;28;20031;-71
2022/02/11 09:30:16;;;;;;;5.90;3.38;;;11.10;63.20;;;;;;5071282;28;20495;-71
2022/02/11 09:32:45;;;;;;;7.90;3.60;;;11.10;62.90;;;;;;5075042;28;20086;-71
2022/02/11 09:35:12;;;;;;;5.90;3.92;;;11.20;63.10;;;;;;5075322;28;20044;-71
2022/02/11 09:37:39;;;;;;;7.00;4.05;;;11.20;63.00;;;;;;5074734;28;20469;-71
2022/02/11 09:40:07;;;;;;;6.68;4.38;;;11.20;62.60;;;;;;5056156;28;20388;-71
2022/02/11 09:42:35;;;;;;;7.90;4.45;;;11.30;62.50;;;;;;5074685;28;20021;-71
2022/02/11 09:45:03;;;;;;;5.30;4.05;;;11.30;62.10;;;;;;5057086;28;20056;-72
2022/02/11 09:47:29;;;;;;;5.38;4.10;;;11.20;62.10;;;;;;5075144;28;20020;-71
2022/02/11 09:49:55;;;;;;;8.80;4.22;;;11.30;62.60;;;;;;5056689;28;20028;-72
2022/02/11 09:52:21;;;;;;;6.72;4.43;;;11.30;62.30;;;;;;5074410;28;20108;-72
2022/02/11 09:54:47;;;;;;;6.72;4.32;;;11.30;62.00;;;;;;5074758;28;20076;-73
2022/02/11 09:57:15;;;;;;;6.22;4.60;;;11.30;62.20;;;;;;5056829;28;20479;-72
2022/02/11 09:59:41;;;;;;;7.07;3.85;;;11.30;62.00;;;;;;5074451;28;20063;-72
2022/02/11 10:02:07;;;;;;;6.95;3.67;;;11.30;61.70;;;;;;5074864;28;20025;-72
2022/02/11 10:04:33;;;;;;;7.47;3.85;;;11.30;62.10;;;;;;5056720;28;20433;-73
2022/02/11 10:07:00;;;;;;;8.52;3.70;;;11.30;61.80;;;;;;5056339;28;20028;-74
2022/02/11 10:09:28;;;;;;;5.82;3.97;;;11.40;61.70;;;;;;5074457;28;20024;-74
2022/02/11 10:11:54;;;;;;;5.07;3.42;;;11.40;61.90;;;;;;5074359;28;20032;-74
2022/02/11 10:14:25;;;;;;;5.03;3.28;;;11.40;61.90;;;;;;5074584;28;20415;-74
2022/02/11 10:17:03;;;;;;;3.67;2.53;;;11.40;61.30;;;;;;5056347;28;20024;-74
2022/02/11 10:19:40;;;;;;;6.07;3.03;;;11.50;61.50;;;;;;5056437;28;20029;-74
2022/02/11 10:22:07;;;;;;;5.43;2.95;;;11.50;61.20;;;;;;5056177;28;20016;-74
2022/02/11 10:24:34;;;;;;;7.25;3.05;;;11.50;61.10;;;;;;5061003;28;20109;-75
2022/02/11 10:27:00;;;;;;;6.45;2.95;;;11.60;61.00;;;;;;5076069;28;20033;-74
2022/02/11 10:29:38;;;;;;;3.42;2.55;;;11.60;60.40;;;;;;5093726;28;20422;-74
2022/02/11 10:32:04;;;;;;;3.47;2.47;;;11.60;60.20;;;;;;5075969;28;20169;-75
2022/02/11 10:34:32;;;;;;;3.88;2.28;;;11.60;59.70;;;;;;5092286;28;20052;-74
2022/02/11 10:36:57;;;;;;;5.47;2.40;;;11.60;60.00;;;;;;5075929;28;20024;-76
2022/02/11 10:39:30;;;;;;;2.85;1.85;;;11.60;59.80;;;;;;5094446;28;20345;-75
2022/02/11 10:42:02;;;;;;;4.75;2.60;;;11.50;59.50;;;;;;5075965;28;20024;-75
2022/02/11 10:44:36;;;;;;;4.10;2.58;;;11.50;59.60;;;;;;5092785;28;20062;-74
2022/02/11 10:47:10;;;;;;;2.70;2.10;;;11.40;59.20;;;;;;5092869;28;20529;-75
2022/02/11 10:49:40;;;;;;;3.13;2.08;;;11.40;59.20;;;;;;5092724;28;20020;-75
2022/02/11 10:52:15;;;;;;;2.38;1.70;;;11.30;58.30;;;;;;5093877;28;20024;-74
2022/02/11 10:54:42;;;;;;;4.25;1.30;;;11.20;57.30;;;;;;5093748;28;20028;-74
2022/02/11 10:57:10;;;;;;;1.42;1.10;;;11.10;56.90;;;;;;5093514;28;20020;-74
2022/02/11 10:59:39;;;;;;;1.60;1.00;;;11.00;56.70;;;;;;5093821;28;20055;-72
2022/02/11 11:02:17;;;;;;;2.83;1.08;;;11.00;57.10;;;;;;5092528;28;20222;-72
2022/02/11 11:04:47;;;;;;;3.90;0.80;;;11.00;56.50;;;;;;5072291;28;20032;-71
2022/02/11 11:07:21;;;;;;;1.42;0.98;;;11.10;56.90;;;;;;5090650;28;20058;-72
2022/02/11 11:09:48;;;;;;;1.17;1.00;;;11.10;56.70;;;;;;5093359;28;20036;-70
2022/02/11 11:12:18;;;;;;;1.45;0.90;;;11.20;56.60;;;;;;5093559;28;20089;-71
2022/02/11 11:14:46;;;;;;;0.82;0.52;;;11.20;55.90;;;;;;5093647;28;20138;-70
2022/02/11 11:17:16;;;;;;;2.13;0.77;;;11.30;56.40;;;;;;5093190;28;20031;-71
2022/02/11 11:19:42;;;;;;;1.17;0.80;;;11.40;55.70;;;;;;5075423;28;20470;-71
2022/02/11 11:22:11;;;;;;;1.08;0.68;;;11.40;54.80;;;;;;5092489;28;20505;-71
2022/02/11 11:25:03;;;;;;;1.83;0.85;;;11.40;54.20;;;;;;5075769;28;20029;-70
2022/02/11 11:27:42;;;;;;;1.15;0.80;;;11.30;53.90;;;;;;5055182;28;20055;-71
2022/02/11 11:30:20;;;;;;;2.03;1.00;;;11.40;53.80;;;;;;5073101;28;20115;-70
2022/02/11 11:33:04;;;;;;;1.05;0.77;;;11.40;53.10;;;;;;5055000;28;20086;-70
2022/02/11 11:36:04;;;;;;;1.42;1.02;;;11.30;52.60;;;;;;5053116;28;20080;-71
2022/02/11 11:39:01;;;;;;;2.45;0.80;;;11.40;52.70;;;;;;5053369;28;20079;-71
2022/02/11 11:41:29;;;;;;;2.83;0.82;;;11.40;52.40;;;;;;5033950;28;20041;-72
2022/02/11 11:44:01;;;;;;;1.20;0.90;;;11.50;51.50;;;;;;5035122;28;20083;-71
2022/02/11 11:46:34;;;;;;;0.50;0.50;;;11.50;51.10;;;;;;5053293;28;20017;-72
2022/02/11 11:49:11;;;;;;;1.27;0.70;;;11.50;50.70;;;;;;5053084;28;20052;-71
2022/02/11 11:51:40;;;;;;;0.63;0.60;;;11.60;49.60;;;;;;5053073;28;20127;-70
2022/02/11 11:54:18;;;;;;;2.42;0.98;;;11.60;49.70;;;;;;5052901;28;20029;-71
2022/02/11 11:56:53;;;;;;;1.45;0.80;;;11.50;48.80;;;;;;5053247;28;20036;-71
2022/02/11 11:59:29;;;;;;;1.85;0.80;;;11.50;48.30;;;;;;5052975;28;20025;-71
2022/02/11 12:02:20;;;;;;;3.15;0.80;;;11.60;48.60;;;;;;5035035;28;20029;-71
2022/02/11 12:04:49;;;;;;;2.00;0.80;;;11.70;49.30;;;;;;5056863;28;20020;-70
2022/02/11 12:07:23;;;;;;;1.35;0.90;;;11.70;47.70;;;;;;5038852;28;20488;-72
2022/02/11 12:09:50;;;;;;;;;;;11.70;47.40;;;;;;5039256;28;20136;-70
2022/02/11 12:12:18;;;;;;;3.63;0.88;;;11.80;49.20;;;;;;5057045;28;19909;-71
2022/02/11 12:14:46;;;;;;;1.88;0.90;;;11.80;47.60;;;;;;5038729;28;20337;-70
2022/02/11 12:17:16;;;;;;;5.90;1.05;;;11.80;47.80;;;;;;5038976;28;20044;-71
2022/02/11 12:19:46;;;;;;;2.28;0.90;;;11.70;47.10;;;;;;5056608;28;20025;-71
2022/02/11 12:22:17;;;;;;;3.83;1.05;;;11.70;47.40;;;;;;5044368;28;20087;-70
2022/02/11 12:27:39;;;;;;;1.40;0.80;;;11.60;46.80;;;;;;5056265;28;20048;-71
2022/02/11 12:30:07;;;;;;;3.50;1.20;;;11.60;46.50;;;;;;5055990;28;20465;-70
2022/02/11 12:32:46;;;;;;;2.15;0.90;;;11.60;46.60;;;;;;5038137;28;20026;-70
2022/02/11 12:35:13;;;;;;;8.52;0.90;;;11.50;45.50;;;;;;5071264;28;20377;-71
2022/02/11 12:37:41;;;;;;;1.23;0.60;;;11.40;44.40;;;;;;5076358;28;20056;-71
2022/02/11 12:40:10;;;;;;;0.95;0.63;;;11.30;44.90;;;;;;5058224;28;20028;-70
2022/02/11 12:42:42;;;;;;;6.50;1.05;;;11.20;44.70;;;;;;5076450;28;20505;-70
2022/02/11 12:45:10;;;;;;;1.52;0.70;;;11.20;44.70;;;;;;5075883;28;20025;-70
2022/02/11 12:47:38;;;;;;;1.50;0.73;;;11.20;44.70;;;;;;5058070;28;20460;-70
2022/02/11 12:50:06;;;;;;;3.03;1.00;;;11.20;45.00;;;;;;5074427;28;20037;-71
2022/02/11 12:52:36;;;;;;;2.35;0.85;;;11.20;44.80;;;;;;5057780;28;20028;-70
2022/02/11 12:55:14;;;;;;;3.97;1.33;;;11.20;44.70;;;;;;5058047;28;20060;-71
2022/02/11 12:57:48;;;;;;;2.40;1.20;;;11.20;43.60;;;;;;5075938;28;20448;-71
2022/02/11 13:00:20;;;;;;;2.63;0.90;;;11.10;43.30;;;;;;5074759;28;20029;-71
2022/02/11 13:02:50;;;;;;;2.13;0.73;;;11.10;43.10;;;;;;5075792;28;20031;-70
2022/02/11 13:05:20;;;;;;;3.65;1.17;;;11.10;43.20;;;;;;5057717;28;20028;-71
2022/02/11 13:07:57;;;;;;;1.60;0.82;;;11.10;43.40;;;;;;5074439;28;20124;-71
2022/02/11 13:10:31;;;;;;;1.73;0.70;;;11.10;43.50;;;;;;5057553;28;20074;-70
2022/02/11 13:13:12;;;;;;;2.30;1.08;;;11.10;43.50;;;;;;5075399;28;20051;-71
2022/02/11 13:15:38;;;;;;;4.75;0.77;;;11.00;42.70;;;;;;5074290;28;20070;-71
2022/02/11 13:18:08;;;;;;;1.65;0.80;;;11.00;43.30;;;;;;5075561;28;20028;-71
2022/02/11 13:20:39;;;;;;;1.85;0.70;;;11.00;43.50;;;;;;5064591;28;20387;-70
2022/02/11 13:23:06;;;;;;;1.08;0.60;;;11.00;43.50;;;;;;5095562;28;20111;-71
2022/02/11 13:25:32;;;;;;;1.58;0.70;;;11.10;43.90;;;;;;5095323;28;20443;-70
2022/02/11 13:28:05;;;;;;;3.92;1.20;;;11.10;43.60;;;;;;5077400;28;20028;-70
2022/02/11 13:30:37;;;;;;;1.20;0.80;;;11.10;43.20;;;;;;5095458;28;20134;-70
2022/02/11 13:33:24;;;;;;;0.55;0.55;;;11.00;42.50;;;;;;5095111;28;20081;-71
2022/02/11 13:35:57;;;;;;;2.58;1.00;;;11.00;42.90;;;;;;5095121;28;20527;-70
2022/02/11 13:38:27;;;;;;;2.95;1.13;;;11.00;42.60;;;;;;5095128;28;20543;-70
2022/02/11 13:41:06;;;;;;;2.05;0.80;;;11.00;42.60;;;;;;5095426;28;20032;-71
2022/02/11 13:44:01;;;;;;;1.42;0.90;;;11.00;42.80;;;;;;5077266;28;20031;-70
2022/02/11 13:46:34;;;;;;;1.42;0.90;;;10.90;42.70;;;;;;5077127;28;20024;-71
2022/02/11 13:49:13;;;;;;;2.45;1.08;;;10.90;43.10;;;;;;5095313;28;20034;-71
2022/02/11 13:51:40;;;;;;;5.68;1.33;;;10.80;43.10;;;;;;5095157;28;20429;-71
2022/02/11 13:54:15;;;;;;;6.35;1.10;;;10.80;43.80;;;;;;5076956;28;20435;-70
2022/02/11 13:56:48;;;;;;;2.20;0.98;;;10.80;44.20;;;;;;5076550;28;20027;-72
2022/02/11 13:59:23;;;;;;;3.50;1.42;;;10.80;44.60;;;;;;5095018;28;20455;-71
2022/02/11 14:01:49;;;;;;;3.22;1.30;;;10.70;44.60;;;;;;5077148;28;20028;-70
2022/02/11 14:04:19;;;;;;;2.85;1.10;;;10.70;45.20;;;;;;5076792;28;20034;-71
2022/02/11 14:07:03;;;;;;;3.60;1.42;;;10.70;45.30;;;;;;5076620;28;20460;-70
2022/02/11 14:09:38;;;;;;;2.42;1.38;;;10.60;44.90;;;;;;5095411;28;20128;-71
2022/02/11 14:12:25;;;;;;;2.67;1.40;;;10.60;44.70;;;;;;5076682;28;20036;-71
2022/02/11 14:15:02;;;;;;;2.15;1.00;;;10.50;44.90;;;;;;5075677;28;20032;-71
2022/02/11 14:17:29;;;;;;;4.28;1.25;;;10.50;45.10;;;;;;5076205;28;20024;-71
2022/02/11 14:19:55;;;;;;;3.65;1.13;;;10.50;44.60;;;;;;5076210;28;20032;-71
2022/02/11 14:22:21;;;;;;;2.97;1.20;;;10.40;44.60;;;;;;5094554;28;20028;-71
2022/02/11 14:24:47;;;;;;;3.67;1.15;;;10.40;44.60;;;;;;5094138;28;20460;-70
2022/02/11 14:27:13;;;;;;;2.35;1.27;;;10.40;44.70;;;;;;5075648;28;20020;-70
2022/02/11 14:29:38;;;;;;;2.63;1.20;;;10.40;44.60;;;;;;5093998;28;20039;-71
2022/02/11 14:32:05;;;;;;;3.13;1.25;;;10.40;44.70;;;;;;5094372;28;20032;-71
2022/02/11 14:34:31;;;;;;;5.25;1.58;;;10.40;45.10;;;;;;5094230;28;20048;-71
2022/02/11 14:36:57;;;;;;;10.27;1.85;;;10.40;45.00;;;;;;5076193;28;20490;-70
2022/02/11 14:39:23;;;;;;;2.60;1.25;;;10.30;44.90;;;;;;5094173;28;20020;-70
2022/02/11 14:41:51;;;;;;;5.38;1.23;;;10.30;44.50;;;;;;5093914;28;20035;-71
2022/02/11 14:44:19;;;;;;;3.78;1.90;;;10.30;44.70;;;;;;5094164;28;20525;-71
2022/02/11 14:46:47;;;;;;;5.95;1.38;;;10.30;45.10;;;;;;5075963;28;20028;-70
2022/02/11 14:49:16;;;;;;;3.38;1.48;;;10.30;45.40;;;;;;5075970;28;20468;-72
2022/02/11 14:51:43;;;;;;;6.05;1.35;;;10.30;45.60;;;;;;5093967;28;20082;-70
2022/02/11 14:54:10;;;;;;;3.22;1.13;;;10.40;45.50;;;;;;5094300;28;20524;-71
2022/02/11 14:56:40;;;;;;;3.50;1.20;;;10.40;45.60;;;;;;5093711;28;20482;-70
2022/02/11 14:59:09;;;;;;;2.53;1.10;;;10.40;45.90;;;;;;5075799;28;20028;-71
2022/02/11 15:01:39;;;;;;;4.10;1.35;;;10.40;45.90;;;;;;5093886;28;20055;-70
2022/02/11 15:04:05;;;;;;;6.28;1.42;;;10.40;46.00;;;;;;5093922;28;20028;-72
2022/02/11 15:06:31;;;;;;;3.55;1.35;;;10.40;46.00;;;;;;5075733;28;20458;-71
2022/02/11 15:08:57;;;;;;;4.13;1.80;;;10.40;46.10;;;;;;5075498;28;20116;-70
2022/02/11 15:11:23;;;;;;;3.78;1.25;;;10.40;46.10;;;;;;5075448;28;20028;-70
2022/02/11 15:13:49;;;;;;;5.13;1.50;;;10.40;46.10;;;;;;5093664;28;20517;-70
2022/02/11 15:16:15;;;;;;;9.77;1.33;;;10.40;46.20;;;;;;5075518;28;20079;-71
2022/02/11 15:18:41;;;;;;;1.20;0.85;;;10.40;46.20;;;;;;5093166;28;20387;-72
2022/02/11 15:21:07;;;;;;;4.78;1.17;;;10.40;46.30;;;;;;5093852;28;20027;-71
2022/02/11 15:23:33;;;;;;;4.45;1.60;;;10.30;46.30;;;;;;5075489;28;20391;-71
2022/02/11 15:26:02;;;;;;;4.30;1.20;;;10.30;46.40;;;;;;5075346;28;20020;-71
2022/02/11 15:28:29;;;;;;;2.00;1.08;;;10.30;46.10;;;;;;5093523;28;20020;-71
2022/02/11 15:30:55;;;;;;;4.70;1.48;;;10.40;46.50;;;;;;5093027;28;20105;-70
2022/02/11 15:33:20;;;;;;;2.72;1.40;;;10.30;46.60;;;;;;5071712;28;20110;-71
2022/02/11 15:35:46;;;;;;;4.35;1.35;;;10.40;46.60;;;;;;5072958;28;20099;-70
2022/02/11 15:38:12;;;;;;;4.53;1.67;;;10.30;46.30;;;;;;5072074;28;20028;-70
2022/02/11 15:40:38;;;;;;;5.85;1.30;;;10.30;46.10;;;;;;5073224;28;20025;-71
2022/02/11 15:43:04;;;;;;;3.88;1.73;;;10.20;45.90;;;;;;5055130;28;20021;-71
2022/02/11 15:45:31;;;;;;;3.35;1.10;;;10.20;46.10;;;;;;5072838;28;20534;-71
2022/02/11 15:47:58;;;;;;;4.70;1.40;;;10.10;46.00;;;;;;5055027;28;20036;-70
2022/02/11 15:50:24;;;;;;;3.28;1.15;;;10.10;45.90;;;;;;5086891;28;20036;-70
2022/02/11 15:52:52;;;;;;;3.75;1.23;;;10.00;46.00;;;;;;5082304;28;20059;-71
2022/02/11 15:55:22;;;;;;;6.30;1.38;;;10.00;46.00;;;;;;5072846;28;20372;-71
2022/02/11 15:57:48;;;;;;;6.53;1.50;;;10.00;46.30;;;;;;5054975;28;20028;-70
2022/02/11 16:00:15;;;;;;;4.45;1.33;;;9.90;46.10;;;;;;5054954;28;20116;-70
2022/02/11 16:02:41;;;;;;;5.22;1.80;;;9.90;46.50;;;;;;5054865;28;20020;-73
2022/02/11 16:05:08;;;;;;;3.60;1.05;;;9.80;46.30;;;;;;5072694;28;20029;-71
2022/02/11 16:07:35;;;;;;;4.78;1.65;;;9.70;46.40;;;;;;5072896;28;20021;-70
2022/02/11 16:10:01;;;;;;;5.70;1.38;;;9.70;46.50;;;;;;5054857;28;20573;-70
2022/02/11 16:12:30;;;;;;;4.70;1.20;;;9.60;46.70;;;;;;5054860;28;20029;-71
2022/02/11 16:14:56;;;;;;;5.90;1.63;;;9.60;47.00;;;;;;5054923;28;20058;-71
2022/02/11 16:17:23;;;;;;;4.80;1.67;;;9.60;47.00;;;;;;5072524;28;20488;-71
2022/02/11 16:19:52;;;;;;;6.22;1.70;;;9.60;46.80;;;;;;5072795;28;20021;-70
2022/02/11 16:22:19;;;;;;;4.30;1.40;;;9.50;47.00;;;;;;5054861;28;20422;-72
2022/02/11 16:24:46;;;;;;;3.65;1.50;;;9.50;47.30;;;;;;5072497;28;20075;-71
2022/02/11 16:27:15;;;;;;;4.03;1.13;;;9.50;47.50;;;;;;5072759;28;20047;-70